Time;durP1;ratioP1;P1;durP2;ratioP2;P2;SDS_P1;SDS_P2;PMS_P1;PMS_P2;Temp;Humidity;BMP_temperature;BMP_pressure;BME280_temperature;BME280_humidity;BME280_pressure;Samples;Min_cycle;Max_cycle;Signal;HPM_P1;HPM_P2
2022/02/08 00:00:21;;;;;;;0.70;0.50;;;7.70;99.90;;;;;;5015256;28;20836;-72
2022/02/08 00:02:51;;;;;;;0.70;0.40;;;7.70;99.90;;;;;;5015770;28;20458;-73
2022/02/08 00:05:19;;;;;;;0.70;0.50;;;7.80;99.90;;;;;;5029834;28;20644;-72
2022/02/08 00:07:48;;;;;;;9.00;2.30;;;7.80;99.90;;;;;;5036717;28;20485;-72
2022/02/08 00:10:14;;;;;;;1.20;1.10;;;7.90;99.90;;;;;;5035523;28;20453;-73
2022/02/08 00:12:40;;;;;;;0.70;0.60;;;7.90;99.90;;;;;;4996722;28;20498;-73
2022/02/08 00:15:06;;;;;;;0.70;0.50;;;7.90;99.90;;;;;;4995640;28;20924;-72
2022/02/08 00:17:31;;;;;;;0.70;0.50;;;7.90;99.90;;;;;;5006098;28;20654;-72
2022/02/08 00:19:59;;;;;;;0.70;0.50;;;7.90;99.90;;;;;;4997321;28;20521;-73
2022/02/08 00:22:26;;;;;;;0.70;0.50;;;7.90;99.90;;;;;;5014793;28;20175;-73
2022/02/08 00:24:51;;;;;;;0.70;0.50;;;7.90;99.90;;;;;;5015598;28;20439;-73
2022/02/08 00:27:17;;;;;;;0.70;0.50;;;7.90;99.90;;;;;;5023245;28;20520;-73
2022/02/08 00:29:43;;;;;;;0.70;0.50;;;7.90;99.90;;;;;;5010740;28;20231;-72
2022/02/08 00:32:11;;;;;;;0.70;0.50;;;7.80;99.90;;;;;;5014944;28;20583;-72
2022/02/08 00:34:37;;;;;;;0.70;0.40;;;7.70;99.90;;;;;;5014551;28;20271;-73
2022/02/08 00:37:03;;;;;;;2.60;2.40;;;7.70;99.90;;;;;;5015134;28;20526;-73
2022/02/08 00:39:31;;;;;;;0.70;0.50;;;7.70;99.90;;;;;;5014502;28;20184;-73
2022/02/08 00:42:04;;;;;;;0.70;0.60;;;7.70;99.90;;;;;;5014709;28;20450;-73
2022/02/08 00:44:37;;;;;;;0.80;0.57;;;7.70;99.90;;;;;;4995696;28;20423;-73
2022/02/08 00:50:05;;;;;;;0.70;0.50;;;7.60;99.90;;;;;;4990102;28;20467;-73
2022/02/08 00:52:33;;;;;;;0.90;0.57;;;7.60;99.90;;;;;;4993753;28;20899;-74
2022/02/08 00:54:59;;;;;;;0.70;0.40;;;7.70;99.90;;;;;;5025223;28;20454;-73
2022/02/08 00:57:24;;;;;;;1.00;0.70;;;7.70;99.90;;;;;;5015615;28;20430;-74
2022/02/08 00:59:50;;;;;;;0.70;0.50;;;7.70;99.90;;;;;;5017857;28;20242;-75
2022/02/08 01:02:16;;;;;;;1.43;1.33;;;7.70;99.90;;;;;;5005273;28;20186;-74
2022/02/08 01:04:47;;;;;;;0.70;0.50;;;7.70;99.90;;;;;;4996466;28;20188;-74
2022/02/08 01:07:13;;;;;;;0.80;0.60;;;7.70;99.90;;;;;;5014393;28;20165;-72
2022/02/08 01:09:57;;;;;;;0.70;0.47;;;7.60;99.90;;;;;;5013504;28;20802;-73
2022/02/08 01:12:24;;;;;;;0.70;0.50;;;7.60;99.90;;;;;;5013752;28;20655;-73
2022/02/08 01:14:52;;;;;;;0.70;0.50;;;7.60;99.90;;;;;;5013881;28;20462;-73
2022/02/08 01:17:20;;;;;;;3.17;1.87;;;7.60;99.90;;;;;;5014054;28;20430;-73
2022/02/08 01:20:03;;;;;;;0.70;0.50;;;7.60;99.90;;;;;;5002917;28;20424;-72
2022/02/08 01:22:29;;;;;;;0.70;0.40;;;7.60;99.90;;;;;;5010793;28;20426;-74
2022/02/08 01:24:55;;;;;;;0.70;0.60;;;7.60;99.90;;;;;;5018822;28;21015;-73
2022/02/08 01:27:29;;;;;;;0.70;0.60;;;7.50;99.90;;;;;;5020210;28;20180;-73
2022/02/08 01:30:00;;;;;;;0.70;0.50;;;7.60;99.90;;;;;;5025857;28;20224;-74
2022/02/08 01:35:27;;;;;;;0.70;0.50;;;7.50;99.90;;;;;;5030332;28;20604;-73
2022/02/08 01:38:08;;;;;;;0.70;0.50;;;7.50;99.90;;;;;;4995481;28;20888;-72
2022/02/08 01:46:01;;;;;;;0.70;0.53;;;7.40;99.90;;;;;;5027030;28;20403;-74
2022/02/08 01:50:55;;;;;;;0.70;0.50;;;7.30;99.90;;;;;;5013294;28;20438;-74
2022/02/08 01:53:22;;;;;;;0.70;0.47;;;7.30;99.90;;;;;;5009600;28;20259;-74
2022/02/08 01:55:47;;;;;;;0.70;0.50;;;7.30;99.90;;;;;;5023002;28;20414;-74
2022/02/08 01:58:13;;;;;;;0.70;0.50;;;7.30;99.90;;;;;;5024974;28;20407;-73
2022/02/08 02:00:40;;;;;;;0.70;0.47;;;7.30;99.90;;;;;;5013486;28;20955;-73
2022/02/08 02:03:05;;;;;;;0.70;0.50;;;7.40;99.90;;;;;;5012869;28;20183;-74
2022/02/08 02:05:31;;;;;;;0.70;0.40;;;7.40;99.90;;;;;;5012696;28;20424;-74
2022/02/08 02:07:58;;;;;;;0.70;0.50;;;7.40;99.90;;;;;;5012460;28;20191;-73
2022/02/08 02:10:24;;;;;;;0.70;0.50;;;7.40;99.90;;;;;;5003993;28;20204;-74
2022/02/08 02:12:59;;;;;;;2.70;0.70;;;7.40;99.90;;;;;;4993365;28;20889;-74
2022/02/08 02:15:26;;;;;;;0.70;0.50;;;7.40;99.90;;;;;;4993139;28;20451;-74
2022/02/08 02:17:51;;;;;;;0.70;0.50;;;7.50;99.90;;;;;;4993130;28;20404;-74
2022/02/08 02:20:18;;;;;;;0.70;0.50;;;7.40;99.90;;;;;;5019507;28;20435;-74
2022/02/08 02:22:44;;;;;;;0.70;0.40;;;7.50;99.90;;;;;;5032444;28;20168;-74
2022/02/08 02:25:27;;;;;;;0.70;0.43;;;7.50;99.90;;;;;;5032387;28;20410;-74
2022/02/08 02:27:55;;;;;;;0.70;0.40;;;7.60;99.90;;;;;;5005694;28;20181;-73
2022/02/08 02:30:22;;;;;;;0.70;0.50;;;7.60;99.90;;;;;;5010462;28;20443;-74
2022/02/08 02:32:47;;;;;;;0.80;0.77;;;7.60;99.90;;;;;;5015185;28;20460;-72
2022/02/08 02:35:13;;;;;;;0.70;0.50;;;7.70;99.90;;;;;;5028643;28;20545;-72
2022/02/08 02:37:39;;;;;;;0.70;0.50;;;7.70;99.90;;;;;;5024503;28;20202;-73
2022/02/08 02:40:05;;;;;;;0.70;0.40;;;7.70;99.90;;;;;;5028833;28;20253;-73
2022/02/08 02:42:31;;;;;;;0.70;0.50;;;7.80;99.90;;;;;;5025962;28;20526;-72
2022/02/08 02:44:57;;;;;;;0.70;0.40;;;7.80;99.90;;;;;;5030677;28;20402;-73
2022/02/08 02:47:24;;;;;;;0.70;0.50;;;7.80;99.90;;;;;;5012630;28;20431;-73
2022/02/08 02:49:50;;;;;;;0.70;0.50;;;7.80;99.90;;;;;;5013935;28;20188;-73
2022/02/08 02:52:15;;;;;;;1.43;0.60;;;7.90;99.90;;;;;;5027104;28;20442;-72
2022/02/08 02:54:41;;;;;;;0.70;0.50;;;7.90;99.90;;;;;;5018610;28;20204;-73
2022/02/08 02:57:07;;;;;;;0.70;0.50;;;8.00;99.90;;;;;;5013252;28;20219;-73
2022/02/08 02:59:35;;;;;;;0.70;0.50;;;8.00;99.90;;;;;;5023253;28;20610;-72
2022/02/08 03:04:48;;;;;;;0.70;0.40;;;8.00;99.90;;;;;;5028588;28;20505;-73
2022/02/08 03:20:50;;;;;;;0.70;0.50;;;8.10;99.90;;;;;;5018906;28;20876;-73
2022/02/08 03:23:16;;;;;;;0.70;0.50;;;8.10;99.90;;;;;;5018740;28;20589;-73
2022/02/08 03:25:41;;;;;;;0.70;0.50;;;8.10;99.90;;;;;;5031848;28;20250;-73
2022/02/08 03:28:07;;;;;;;0.70;0.50;;;8.20;99.90;;;;;;5020502;28;20212;-73
2022/02/08 03:30:33;;;;;;;0.70;0.50;;;8.20;99.90;;;;;;5012590;28;20612;-74
2022/02/08 03:32:59;;;;;;;1.07;0.97;;;8.20;99.90;;;;;;5023059;28;20182;-73
2022/02/08 03:35:24;;;;;;;0.70;0.50;;;8.20;99.90;;;;;;5029786;28;20299;-73
2022/02/08 03:38:03;;;;;;;1.37;1.23;;;8.20;99.90;;;;;;5025171;28;20472;-73
2022/02/08 03:43:13;;;;;;;0.70;0.50;;;8.30;99.90;;;;;;5014709;28;20777;-73
2022/02/08 03:45:39;;;;;;;0.70;0.60;;;8.30;99.90;;;;;;5018008;28;20430;-73
2022/02/08 03:48:06;;;;;;;0.80;0.70;;;8.30;99.90;;;;;;5017758;28;20438;-72
2022/02/08 03:50:32;;;;;;;0.70;0.50;;;8.40;99.90;;;;;;5021998;28;20822;-73
2022/02/08 03:52:57;;;;;;;0.70;0.50;;;8.40;99.90;;;;;;5021653;28;20480;-73
2022/02/08 03:55:23;;;;;;;0.87;0.70;;;8.40;99.90;;;;;;5031428;28;20842;-73
2022/02/08 03:57:49;;;;;;;0.70;0.40;;;8.40;99.90;;;;;;5021108;28;20174;-73
2022/02/08 04:00:16;;;;;;;0.70;0.50;;;8.50;99.90;;;;;;5015861;28;20278;-73
2022/02/08 04:02:52;;;;;;;0.70;0.50;;;8.50;99.90;;;;;;5026081;28;20172;-73
2022/02/08 04:07:51;;;;;;;0.80;0.70;;;8.50;99.90;;;;;;5032228;28;20418;-73
2022/02/08 04:10:23;;;;;;;0.70;0.50;;;8.50;99.90;;;;;;5006048;28;20482;-73
2022/02/08 04:13:02;;;;;;;0.70;0.43;;;8.50;99.90;;;;;;5015138;28;20403;-73
2022/02/08 04:34:38;;;;;;;0.70;0.50;;;8.60;99.90;;;;;;5030310;28;20456;-74
2022/02/08 04:39:52;;;;;;;1.10;0.60;;;8.60;99.90;;;;;;5024999;28;20434;-73
2022/02/08 04:43:09;;;;;;;0.70;0.50;;;8.60;99.90;;;;;;5031972;28;20480;-73
2022/02/08 04:50:19;;;;;;;0.70;0.50;;;8.50;99.90;;;;;;5032218;28;20477;-74
2022/02/08 04:52:45;;;;;;;0.70;0.50;;;8.50;99.90;;;;;;5031986;28;20462;-74
2022/02/08 05:35:51;;;;;;;0.70;0.53;;;8.50;99.90;;;;;;5033591;28;20476;-74
2022/02/08 05:44:04;;;;;;;0.70;0.40;;;8.50;99.90;;;;;;5017837;28;20475;-74
2022/02/08 05:49:23;;;;;;;0.80;0.63;;;8.50;99.90;;;;;;5022111;28;20469;-74
2022/02/08 05:54:15;;;;;;;0.70;0.60;;;8.50;99.90;;;;;;5029015;28;20508;-74
2022/02/08 05:56:40;;;;;;;0.70;0.50;;;8.50;99.90;;;;;;5032732;28;20811;-73
2022/02/08 05:59:10;;;;;;;0.70;0.50;;;8.50;99.90;;;;;;5017691;28;20203;-72
2022/02/08 06:01:36;;;;;;;0.80;0.60;;;8.50;99.90;;;;;;5022611;28;20183;-73
2022/02/08 06:04:02;;;;;;;0.70;0.50;;;8.50;99.90;;;;;;5021630;28;20822;-73
2022/02/08 06:06:30;;;;;;;0.70;0.53;;;8.60;99.90;;;;;;5027460;28;20491;-73
2022/02/08 06:08:56;;;;;;;0.70;0.50;;;8.60;99.90;;;;;;5017969;28;20488;-72
2022/02/08 06:11:23;;;;;;;1.77;1.10;;;8.60;99.90;;;;;;5005437;28;20534;-73
2022/02/08 06:13:51;;;;;;;0.70;0.50;;;8.60;99.90;;;;;;5032413;28;20179;-73
2022/02/08 06:16:19;;;;;;;0.70;0.50;;;8.60;99.90;;;;;;5019911;28;20427;-73
2022/02/08 06:18:45;;;;;;;0.70;0.43;;;8.60;99.90;;;;;;5026096;28;20472;-74
2022/02/08 06:21:11;;;;;;;0.70;0.50;;;8.60;99.90;;;;;;5016301;28;20426;-73
2022/02/08 06:23:36;;;;;;;2.90;1.23;;;8.60;99.90;;;;;;5028379;28;20418;-73
2022/02/08 06:26:02;;;;;;;0.70;0.50;;;8.60;99.90;;;;;;5018654;28;20176;-74
2022/02/08 06:28:28;;;;;;;0.70;0.50;;;8.70;99.90;;;;;;5021110;28;20534;-73
2022/02/08 06:30:53;;;;;;;0.70;0.50;;;8.70;99.90;;;;;;5022091;28;20700;-74
2022/02/08 06:33:20;;;;;;;0.80;0.60;;;8.70;99.90;;;;;;5023166;28;20514;-74
2022/02/08 06:35:45;;;;;;;0.70;0.50;;;8.70;99.90;;;;;;5022700;28;20191;-73
2022/02/08 06:38:14;;;;;;;2.40;1.23;;;8.70;99.90;;;;;;5005398;28;20437;-73
2022/02/08 06:40:42;;;;;;;0.70;0.60;;;8.70;99.90;;;;;;5015774;28;20195;-74
2022/02/08 06:43:08;;;;;;;0.70;0.50;;;8.70;99.90;;;;;;5030477;28;20422;-73
2022/02/08 06:45:34;;;;;;;0.70;0.50;;;8.70;99.90;;;;;;5027171;28;20920;-73
2022/02/08 06:48:02;;;;;;;0.80;0.60;;;8.70;99.90;;;;;;5003915;28;20478;-73
2022/02/08 06:50:28;;;;;;;0.70;0.50;;;8.80;99.90;;;;;;5023430;28;20568;-73
2022/02/08 06:52:54;;;;;;;1.77;1.67;;;8.80;99.90;;;;;;5030852;28;20525;-73
2022/02/08 06:55:19;;;;;;;0.70;0.50;;;8.80;99.90;;;;;;5018472;28;20192;-73
2022/02/08 06:58:05;;;;;;;0.70;0.50;;;8.80;99.90;;;;;;5023122;28;20612;-74
2022/02/08 07:00:36;;;;;;;0.70;0.50;;;8.80;99.90;;;;;;5024208;28;20196;-73
2022/02/08 07:03:12;;;;;;;0.70;0.50;;;8.90;99.90;;;;;;5024944;28;20442;-74
2022/02/08 07:05:39;;;;;;;0.70;0.50;;;8.90;99.90;;;;;;5006448;28;20822;-73
2022/02/08 07:08:05;;;;;;;0.80;0.60;;;8.80;99.90;;;;;;5013479;28;20728;-73
2022/02/08 07:10:32;;;;;;;0.70;0.50;;;8.80;99.90;;;;;;5017787;28;20455;-73
2022/02/08 07:12:58;;;;;;;0.70;0.50;;;8.80;99.90;;;;;;5001314;28;20442;-73
2022/02/08 07:15:23;;;;;;;0.70;0.50;;;8.90;99.90;;;;;;5002353;28;20458;-74
2022/02/08 07:17:49;;;;;;;0.90;0.60;;;8.90;99.90;;;;;;5030642;28;20800;-74
2022/02/08 07:20:16;;;;;;;0.70;0.50;;;8.90;99.90;;;;;;5022165;28;20282;-74
2022/02/08 07:22:41;;;;;;;0.70;0.50;;;8.90;99.90;;;;;;5014098;28;20951;-74
2022/02/08 07:25:08;;;;;;;0.70;0.50;;;8.90;99.90;;;;;;5014091;28;20448;-74
2022/02/08 07:27:34;;;;;;;0.70;0.50;;;8.90;99.90;;;;;;5012755;28;20666;-73
2022/02/08 07:30:07;;;;;;;1.00;0.90;;;9.00;99.90;;;;;;5011728;28;20442;-73
2022/02/08 07:32:35;;;;;;;0.70;0.50;;;9.00;99.90;;;;;;5010052;28;20431;-74
2022/02/08 07:38:03;;;;;;;1.03;0.93;;;9.00;99.90;;;;;;4995869;28;20406;-73
2022/02/08 07:41:34;;;;;;;0.70;0.50;;;9.00;99.90;;;;;;5011794;28;20473;-73
2022/02/08 07:43:15;;;;;;;0.70;0.50;;;9.00;99.90;;;;;;5028365;28;20448;-73
2022/02/08 07:45:40;;;;;;;0.70;0.50;;;9.00;99.90;;;;;;5005642;28;20447;-74
2022/02/08 07:48:06;;;;;;;0.70;0.50;;;9.10;99.90;;;;;;5029125;28;20213;-72
2022/02/08 07:50:37;;;;;;;0.70;0.50;;;9.10;99.90;;;;;;5022540;28;20204;-72
2022/02/08 07:53:03;;;;;;;2.40;1.27;;;9.10;99.90;;;;;;5011672;28;20178;-73
2022/02/08 07:55:28;;;;;;;0.80;0.63;;;9.10;99.90;;;;;;5034114;28;20450;-73
2022/02/08 07:57:54;;;;;;;0.90;0.60;;;9.20;99.90;;;;;;5023167;28;20271;-72
2022/02/08 08:00:20;;;;;;;0.70;0.50;;;9.20;99.90;;;;;;5012301;28;20196;-72
2022/02/08 08:02:45;;;;;;;1.73;1.47;;;9.20;99.90;;;;;;5022850;28;20497;-73
2022/02/08 08:05:12;;;;;;;0.70;0.50;;;9.30;99.90;;;;;;5007345;28;20179;-73
2022/02/08 08:07:38;;;;;;;0.70;0.50;;;9.30;99.90;;;;;;5029666;28;20176;-73
2022/02/08 08:10:06;;;;;;;0.80;0.50;;;9.30;99.90;;;;;;5019005;28;20451;-73
2022/02/08 08:12:34;;;;;;;0.70;0.50;;;9.50;99.90;;;;;;5023655;28;20183;-73
2022/02/08 08:15:06;;;;;;;0.73;0.60;;;9.50;99.90;;;;;;5024674;28;20463;-73
2022/02/08 08:20:00;;;;;;;0.70;0.50;;;9.60;99.90;;;;;;5027550;28;20529;-73
2022/02/08 08:22:25;;;;;;;0.70;0.50;;;9.60;99.90;;;;;;5030777;28;20521;-72
2022/02/08 08:24:51;;;;;;;0.70;0.50;;;9.60;99.90;;;;;;5032895;28;20210;-73
2022/02/08 08:27:18;;;;;;;0.70;0.50;;;9.60;99.90;;;;;;5015286;28;20167;-73
2022/02/08 08:29:44;;;;;;;0.70;0.50;;;9.70;99.90;;;;;;5034051;28;20183;-73
2022/02/08 08:32:09;;;;;;;0.70;0.50;;;9.70;99.90;;;;;;5025421;28;20453;-73
2022/02/08 08:34:37;;;;;;;0.80;0.70;;;9.70;99.90;;;;;;5022789;28;20450;-73
2022/02/08 08:37:04;;;;;;;0.80;0.60;;;9.80;99.90;;;;;;5022458;28;20580;-72
2022/02/08 08:39:45;;;;;;;0.70;0.50;;;9.80;99.90;;;;;;5024776;28;20948;-73
2022/02/08 08:45:15;;;;;;;0.70;0.50;;;9.90;99.90;;;;;;5025987;28;21021;-72
2022/02/08 08:53:08;;;;;;;0.70;0.50;;;10.00;99.90;;;;;;5014056;28;20895;-73
2022/02/08 08:55:34;;;;;;;0.70;0.70;;;10.10;99.90;;;;;;4996265;28;20455;-72
2022/02/08 08:57:59;;;;;;;0.70;0.50;;;10.10;99.90;;;;;;5014326;28;20211;-72
2022/02/08 09:00:25;;;;;;;0.70;0.50;;;10.10;99.90;;;;;;5013027;28;20202;-73
2022/02/08 09:02:50;;;;;;;0.87;0.70;;;10.10;99.90;;;;;;5022075;28;20251;-73
2022/02/08 09:05:18;;;;;;;1.20;1.10;;;10.20;99.90;;;;;;5029987;28;20175;-73
2022/02/08 09:07:44;;;;;;;0.70;0.50;;;10.30;99.90;;;;;;5026771;28;20222;-72
2022/02/08 09:10:13;;;;;;;0.70;0.60;;;10.30;99.90;;;;;;5028215;28;20434;-73
2022/02/08 09:23:25;;;;;;;0.87;0.80;;;10.60;99.90;;;;;;5026357;28;20949;-73
2022/02/08 09:26:10;;;;;;;0.70;0.60;;;10.60;99.90;;;;;;5013553;28;20828;-73
2022/02/08 09:31:04;;;;;;;2.50;0.60;;;10.80;99.90;;;;;;5012724;28;20449;-72
2022/02/08 09:33:30;;;;;;;0.80;0.60;;;10.90;99.90;;;;;;5012241;28;20267;-73
2022/02/08 09:35:56;;;;;;;0.70;0.50;;;10.90;99.90;;;;;;5027243;28;20557;-74
2022/02/08 09:38:27;;;;;;;0.70;0.50;;;11.00;99.90;;;;;;5018895;28;20804;-73
2022/02/08 09:40:54;;;;;;;0.70;0.60;;;11.00;99.90;;;;;;5031857;28;20202;-73
2022/02/08 09:43:20;;;;;;;0.80;0.60;;;11.10;99.90;;;;;;5030456;28;20438;-73
2022/02/08 09:45:48;;;;;;;1.13;1.03;;;11.10;99.90;;;;;;5031637;28;20478;-73
2022/02/08 09:48:21;;;;;;;0.80;0.60;;;11.20;99.90;;;;;;5006243;28;20214;-73
2022/02/08 09:50:49;;;;;;;0.70;0.50;;;11.20;99.90;;;;;;5011960;28;20454;-72
2022/02/08 09:53:20;;;;;;;3.27;1.53;;;11.20;99.90;;;;;;5026878;28;20955;-73
2022/02/08 09:55:46;;;;;;;0.80;0.60;;;11.30;99.90;;;;;;5029798;28;20560;-73
2022/02/08 09:58:12;;;;;;;0.70;0.50;;;11.30;99.90;;;;;;5026971;28;20582;-73
2022/02/08 10:00:39;;;;;;;0.80;0.60;;;11.40;99.90;;;;;;5012318;28;20192;-73
2022/02/08 10:03:07;;;;;;;0.70;0.50;;;11.40;99.90;;;;;;5011280;28;20492;-73
2022/02/08 10:05:46;;;;;;;0.73;0.57;;;11.50;99.90;;;;;;5012986;28;20959;-73
2022/02/08 10:08:13;;;;;;;0.70;0.50;;;11.50;99.90;;;;;;5003820;28;20592;-72
2022/02/08 10:10:39;;;;;;;0.70;0.50;;;11.50;99.90;;;;;;5015447;28;20467;-72
2022/02/08 10:23:57;;;;;;;0.80;0.70;;;11.70;99.90;;;;;;5021692;28;20483;-73
2022/02/08 10:26:42;;;;;;;0.70;0.60;;;11.70;99.90;;;;;;5022198;28;20438;-73
2022/02/08 10:29:26;;;;;;;0.80;0.60;;;11.80;99.90;;;;;;5021035;28;20445;-72
2022/02/08 10:32:32;;;;;;;0.70;0.50;;;11.80;99.90;;;;;;5018875;28;20486;-72
2022/02/08 10:37:46;;;;;;;1.60;0.70;;;11.90;99.90;;;;;;5024266;28;20872;-73
2022/02/08 10:40:18;;;;;;;0.80;0.60;;;11.80;99.90;;;;;;5016617;28;20454;-73
2022/02/08 10:42:53;;;;;;;0.70;0.60;;;11.90;99.90;;;;;;4990954;28;20437;-73
2022/02/08 10:45:23;;;;;;;0.70;0.50;;;11.90;99.90;;;;;;5012836;28;20538;-72
2022/02/08 10:48:15;;;;;;;1.07;0.70;;;11.90;99.90;;;;;;5008487;28;20421;-73
2022/02/08 10:50:46;;;;;;;0.70;0.50;;;11.90;99.90;;;;;;5006844;28;20830;-73
2022/02/08 10:53:14;;;;;;;0.70;0.60;;;12.00;99.90;;;;;;5022569;28;20434;-73
2022/02/08 10:58:52;;;;;;;0.70;0.50;;;12.00;99.90;;;;;;4995154;28;20441;-73
2022/02/08 11:01:23;;;;;;;0.80;0.60;;;12.00;99.90;;;;;;5023927;28;20457;-72
2022/02/08 11:08:58;;;;;;;0.70;0.50;;;12.10;99.90;;;;;;5029025;28;20969;-73
2022/02/08 11:11:38;;;;;;;0.70;0.60;;;12.10;99.90;;;;;;5004056;28;20550;-72
2022/02/08 11:22:34;;;;;;;0.70;0.50;;;12.20;99.90;;;;;;5019132;28;20415;-73
2022/02/08 11:25:14;;;;;;;0.70;0.50;;;12.30;99.90;;;;;;5012829;28;20470;-73
2022/02/08 11:27:47;;;;;;;0.70;0.50;;;12.40;99.90;;;;;;5014399;28;20423;-72
2022/02/08 11:30:21;;;;;;;0.70;0.50;;;12.50;99.90;;;;;;4995972;28;20465;-72
2022/02/08 11:33:02;;;;;;;1.43;1.33;;;12.50;99.90;;;;;;5028308;28;20441;-73
2022/02/08 11:51:50;;;;;;;0.70;0.50;;;12.80;99.90;;;;;;5008898;28;20418;-73
2022/02/08 12:02:40;;;;;;;0.70;0.50;;;12.90;99.90;;;;;;5015602;28;20406;-73
2022/02/08 12:05:41;;;;;;;2.40;1.30;;;12.90;99.90;;;;;;5010768;28;20446;-73
2022/02/08 12:07:47;;;;;;;0.70;0.50;;;13.00;99.90;;;;;;5008172;28;20858;-73
2022/02/08 12:10:23;;;;;;;0.70;0.50;;;13.00;99.90;;;;;;5036010;28;20471;-73
2022/02/08 12:13:12;;;;;;;0.77;0.50;;;13.00;99.90;;;;;;5017353;28;20561;-72
2022/02/08 12:35:12;;;;;;;0.80;0.60;;;13.60;99.90;;;;;;5017227;28;20446;-73
2022/02/08 12:56:54;;;;;;;1.93;1.83;;;14.00;99.90;;;;;;5014498;28;20414;-73
2022/02/08 13:02:20;;;;;;;0.70;0.50;;;14.10;99.90;;;;;;5016239;28;20434;-73
2022/02/08 13:05:19;;;;;;;0.70;0.50;;;14.10;99.90;;;;;;5016428;28;20445;-73
2022/02/08 13:19:50;;;;;;;0.80;0.70;;;14.10;99.90;;;;;;5019018;28;20442;-73
2022/02/08 13:32:26;;;;;;;0.70;0.50;;;14.10;99.90;;;;;;5015002;28;20434;-73
2022/02/08 14:13:58;;;;;;;0.70;0.60;;;14.10;99.90;;;;;;5016492;28;20423;-72
2022/02/08 14:22:08;;;;;;;0.80;0.70;;;14.80;99.90;;;;;;5012947;28;20398;-73
2022/02/08 14:29:59;;;;;;;0.70;0.50;;;20.10;99.90;;;;;;5011931;28;21074;-73
2022/02/08 14:36:00;;;;;;;0.80;0.60;;;19.90;99.30;;;;;;4975396;28;20501;-73
2022/02/08 15:08:25;;;;;;;0.90;0.60;;;16.70;99.90;;;;;;4989331;28;20465;-73
2022/02/08 15:10:56;;;;;;;0.70;0.50;;;16.30;99.90;;;;;;5011910;28;20418;-73
2022/02/08 15:13:26;;;;;;;0.70;0.50;;;15.90;99.90;;;;;;5011745;28;20450;-73
2022/02/08 15:18:47;;;;;;;0.70;0.50;;;15.30;99.90;;;;;;5015272;28;20461;-73
2022/02/08 15:21:19;;;;;;;0.77;0.63;;;15.00;99.90;;;;;;5011585;28;20423;-73
2022/02/08 15:23:44;;;;;;;0.80;0.80;;;14.70;99.90;;;;;;5011989;28;20161;-73
2022/02/08 15:26:10;;;;;;;0.70;0.50;;;14.60;99.90;;;;;;5010938;28;20421;-73
2022/02/08 15:28:36;;;;;;;0.70;0.50;;;14.30;99.90;;;;;;5011261;28;20184;-73
2022/02/08 15:31:02;;;;;;;5.47;1.83;;;14.10;99.90;;;;;;5010802;28;20176;-73
2022/02/08 15:33:27;;;;;;;0.70;0.60;;;13.90;99.90;;;;;;4994330;28;20187;-73
2022/02/08 15:35:54;;;;;;;1.50;0.87;;;13.80;99.90;;;;;;5011127;28;20459;-73
2022/02/08 15:38:27;;;;;;;0.70;0.57;;;13.70;99.90;;;;;;5011556;28;20180;-73
2022/02/08 15:40:52;;;;;;;0.70;0.50;;;13.50;99.90;;;;;;5011459;28;20526;-72
2022/02/08 15:43:18;;;;;;;0.70;0.50;;;13.30;99.90;;;;;;4997933;28;20443;-73
2022/02/08 15:45:50;;;;;;;0.80;0.60;;;13.20;99.90;;;;;;4997386;28;20646;-72
2022/02/08 15:48:21;;;;;;;0.70;0.50;;;13.10;99.90;;;;;;5015359;28;20184;-73
2022/02/08 15:51:02;;;;;;;0.70;0.50;;;13.00;99.90;;;;;;5015008;28;20538;-73
2022/02/08 16:01:16;;;;;;;1.33;1.23;;;12.60;99.90;;;;;;5016630;28;20172;-72
2022/02/08 16:09:37;;;;;;;0.70;0.50;;;12.30;99.90;;;;;;5018610;28;20424;-72
2022/02/08 16:14:37;;;;;;;0.70;0.50;;;12.10;99.90;;;;;;5014838;28;20471;-72
2022/02/08 16:17:16;;;;;;;0.70;0.50;;;12.10;99.90;;;;;;5014960;28;20191;-73
2022/02/08 16:54:55;;;;;;;1.00;0.60;;;11.50;99.90;;;;;;5010146;28;20462;-72
2022/02/08 16:57:37;;;;;;;0.70;0.50;;;11.50;99.90;;;;;;5015995;28;20434;-72
2022/02/08 17:00:06;;;;;;;0.70;0.50;;;11.50;99.90;;;;;;5010726;28;20430;-73
2022/02/08 17:02:32;;;;;;;0.70;0.50;;;11.40;99.90;;;;;;5024109;28;20510;-73
2022/02/08 17:05:03;;;;;;;1.00;0.90;;;11.40;99.90;;;;;;5013217;28;20522;-72
2022/02/08 17:07:34;;;;;;;0.70;0.60;;;11.40;99.90;;;;;;5014026;28;20411;-73
2022/02/08 17:10:03;;;;;;;0.70;0.50;;;11.40;99.90;;;;;;5013450;28;20496;-72
2022/02/08 17:49:55;;;;;;;0.70;0.50;;;11.20;99.90;;;;;;5012838;28;20453;-72
2022/02/08 17:52:21;;;;;;;0.70;0.50;;;11.20;99.90;;;;;;5012684;28;20419;-72
2022/02/08 17:54:46;;;;;;;0.70;0.60;;;11.20;99.90;;;;;;5012386;28;20461;-72
2022/02/08 17:57:13;;;;;;;1.30;0.60;;;11.20;99.90;;;;;;5012660;28;20722;-72
2022/02/08 17:59:39;;;;;;;0.80;0.67;;;11.20;99.90;;;;;;5012576;28;20191;-72
2022/02/08 18:02:06;;;;;;;0.80;0.70;;;11.30;99.90;;;;;;5012218;28;20455;-72
2022/02/08 18:04:32;;;;;;;0.70;0.50;;;11.30;99.90;;;;;;5012500;28;20445;-72
2022/02/08 18:06:59;;;;;;;0.90;0.70;;;11.30;99.90;;;;;;5012298;28;20435;-72
2022/02/08 18:09:26;;;;;;;0.80;0.70;;;11.30;99.90;;;;;;5012022;28;21238;-72
2022/02/08 18:11:54;;;;;;;0.70;0.50;;;11.40;99.90;;;;;;5012930;28;20403;-75
2022/02/08 18:14:21;;;;;;;0.70;0.50;;;11.40;99.90;;;;;;4996501;28;20968;-72
2022/02/08 18:16:52;;;;;;;0.80;0.77;;;11.40;99.90;;;;;;5027132;28;20952;-73
2022/02/08 18:19:20;;;;;;;1.00;0.90;;;11.40;99.90;;;;;;5008190;28;20518;-73
2022/02/08 18:22:07;;;;;;;0.70;0.50;;;11.40;99.90;;;;;;5012110;28;20441;-72
2022/02/08 18:24:52;;;;;;;0.70;0.50;;;11.40;99.90;;;;;;5011967;28;20438;-72
2022/02/08 19:21:06;;;;;;;0.80;0.60;;;11.00;99.90;;;;;;5011444;28;20439;-72
2022/02/08 19:23:39;;;;;;;0.70;0.50;;;11.00;99.90;;;;;;5011100;28;20419;-73
2022/02/08 19:26:07;;;;;;;0.70;0.50;;;11.00;99.90;;;;;;5011539;28;20441;-72
2022/02/08 19:28:33;;;;;;;0.70;0.60;;;11.00;99.90;;;;;;4990579;28;20423;-73
2022/02/08 19:30:59;;;;;;;0.70;0.70;;;11.00;99.90;;;;;;4993410;28;20450;-73
2022/02/08 19:33:26;;;;;;;0.70;0.50;;;11.00;99.90;;;;;;5010807;28;20429;-73
2022/02/08 19:35:52;;;;;;;0.70;0.50;;;11.10;99.90;;;;;;5011306;28;20211;-73
2022/02/08 19:38:19;;;;;;;0.80;0.60;;;11.10;99.90;;;;;;5014953;28;20767;-73
2022/02/08 19:40:44;;;;;;;1.13;1.03;;;11.10;99.90;;;;;;4997387;28;20868;-73
2022/02/08 19:43:10;;;;;;;0.70;0.60;;;11.10;99.90;;;;;;5015040;28;20484;-73
2022/02/08 19:45:42;;;;;;;0.70;0.50;;;11.10;99.90;;;;;;5015370;28;20183;-74
2022/02/08 19:48:08;;;;;;;0.70;0.50;;;11.10;99.90;;;;;;5014261;28;20528;-73
2022/02/08 19:50:36;;;;;;;0.70;0.50;;;11.10;99.90;;;;;;5014262;28;20477;-72
2022/02/08 19:53:03;;;;;;;0.80;0.60;;;11.10;99.90;;;;;;5014654;28;20419;-73
2022/02/08 19:55:44;;;;;;;0.70;0.50;;;11.10;99.90;;;;;;5015115;28;20451;-73
2022/02/08 19:58:19;;;;;;;0.70;0.50;;;11.10;99.90;;;;;;4997728;28;20841;-71
2022/02/08 20:00:55;;;;;;;0.73;0.57;;;11.10;99.90;;;;;;4996411;28;20496;-71
2022/02/08 20:03:24;;;;;;;0.70;0.60;;;11.00;99.90;;;;;;5015176;28;20436;-71
2022/02/08 20:05:49;;;;;;;3.57;3.27;;;11.10;99.90;;;;;;5014987;28;21020;-72
2022/02/08 20:08:15;;;;;;;0.90;0.50;;;11.00;99.90;;;;;;5015494;28;20482;-71
2022/02/08 20:10:40;;;;;;;0.70;0.60;;;11.10;99.90;;;;;;4997402;28;20279;-70
2022/02/08 20:13:06;;;;;;;0.70;0.50;;;11.10;99.90;;;;;;5014869;28;20191;-71
2022/02/08 20:15:32;;;;;;;1.00;0.60;;;11.10;99.90;;;;;;5014811;28;20192;-72
2022/02/08 20:17:59;;;;;;;5.60;1.10;;;11.10;99.90;;;;;;5014816;28;20210;-71
2022/02/08 20:20:26;;;;;;;0.70;0.50;;;11.10;99.90;;;;;;5014801;28;20218;-71
2022/02/08 20:22:58;;;;;;;0.70;0.50;;;11.10;99.90;;;;;;5014776;28;20451;-71
2022/02/08 20:25:24;;;;;;;0.70;0.50;;;11.10;99.90;;;;;;5015103;28;20426;-71
2022/02/08 20:27:52;;;;;;;0.70;0.50;;;11.10;99.90;;;;;;5014268;28;20488;-71
2022/02/08 20:30:24;;;;;;;1.43;1.00;;;11.10;99.90;;;;;;5013990;28;20455;-70
2022/02/08 20:32:52;;;;;;;1.40;1.30;;;11.10;99.90;;;;;;5014639;28;20431;-70
2022/02/08 20:35:19;;;;;;;0.70;0.50;;;11.10;99.90;;;;;;5014426;28;20457;-71
2022/02/08 20:37:45;;;;;;;0.70;0.50;;;11.10;99.90;;;;;;5014869;28;20442;-70
2022/02/08 20:40:11;;;;;;;0.70;0.50;;;11.10;99.90;;;;;;5013773;28;20446;-71
2022/02/08 20:42:36;;;;;;;0.70;0.50;;;11.10;99.90;;;;;;5014786;28;20523;-70
2022/02/08 20:45:04;;;;;;;0.70;0.50;;;11.10;99.90;;;;;;5014418;28;20411;-71
2022/02/08 20:47:29;;;;;;;0.70;0.50;;;11.10;99.90;;;;;;5013884;28;20172;-71
2022/02/08 20:50:09;;;;;;;1.50;1.33;;;11.10;99.90;;;;;;5013799;28;20520;-71
2022/02/08 20:52:40;;;;;;;0.70;0.50;;;11.10;99.90;;;;;;5014600;28;20222;-71
2022/02/08 20:55:09;;;;;;;0.80;0.60;;;11.00;99.90;;;;;;5013935;28;20454;-71
2022/02/08 20:57:36;;;;;;;0.70;0.50;;;11.00;99.90;;;;;;5014248;28;20439;-71
2022/02/08 21:00:12;;;;;;;0.80;0.57;;;11.10;99.90;;;;;;5013459;28;20454;-70
2022/02/08 21:02:42;;;;;;;0.80;0.80;;;11.10;99.90;;;;;;5014146;28;20986;-71
2022/02/08 21:07:40;;;;;;;0.80;0.53;;;11.00;99.90;;;;;;5014307;28;20928;-71
2022/02/08 21:10:06;;;;;;;0.90;0.70;;;11.00;99.90;;;;;;5013891;28;20490;-72
2022/02/08 21:12:41;;;;;;;0.70;0.60;;;11.00;99.90;;;;;;5013766;28;20306;-71